Time;durP1;ratioP1;P1;durP2;ratioP2;P2;SDS_P1;SDS_P2;PMS_P1;PMS_P2;Temp;Humidity;BMP_temperature;BMP_pressure;BME280_temperature;BME280_humidity;BME280_pressure;Samples;Min_cycle;Max_cycle;Signal;HPM_P1;HPM_P2
2023/10/14 00:54:36;;;;;;;;;;;;;;;11.31;100;100304.9;;;;-75
2023/10/14 00:59:44;;;;;;;;;;;;;;;;;;;;;
2023/10/14 01:13:06;;;;;;;;;;;;;;;10.64;100;100339.8;;;;-75
2023/10/14 01:17:41;;;;;;;;;;;;;;;10.63;100;100348.5;;;;-74
2023/10/14 01:22:41;;;;;;;;;;;;;;;10.67;100;100352.3;;;;-74
2023/10/14 01:27:43;;;;;;;;;;;;;;;10.68;100;100363.4;;;;-74
2023/10/14 01:30:32;;;;;;;14.1;1.4;;;;;;;;;;;;;-73
2023/10/14 01:32:48;;;;;;;;;;;;;;;10.74;100;100367.5;;;;-74
2023/10/14 01:37:40;;;;;;;;;;;;;;;10.8;100;100368.6;;;;-73
2023/10/14 01:42:37;;;;;;;;;;;;;;;10.87;100;100384.2;;;;-74
2023/10/14 01:47:43;;;;;;;;;;;;;;;10.78;100;100389.7;;;;-74
2023/10/14 01:52:41;;;;;;;;;;;;;;;10.79;100;100406.3;;;;-74
2023/10/14 01:57:42;;;;;;;;;;;;;;;10.84;100;100412.9;;;;-75
2023/10/14 02:00:38;;;;;;;12.4;1.7;;;;;;;;;;;;;-74
2023/10/14 02:02:48;;;;;;;;;;;;;;;10.87;99.99414;100421.8;;;;-73
2023/10/14 02:07:38;;;;;;;;;;;;;;;10.79;100;100423.1;;;;-75
2023/10/14 02:12:42;;;;;;;;;;;;;;;10.94;95.95508;100437.7;;;;-75
2023/10/14 02:28:14;;;;;;;;;;;;;;;;;;;;;
2023/10/14 02:34:30;;;;;;;;;;;;;;;11.23;93.07227;100487.8;;;;-75
2023/10/14 02:42:57;;;;;;;;;;;;;;;11.28;91.8252;100510;;;;-77
2023/10/14 02:47:37;;;;;;;;;;;;;;;11.17;88.79785;100528.8;;;;-76
2023/10/14 02:52:38;;;;;;;;;;;;;;;11.05;90.09961;100544.7;;;;-76
2023/10/14 02:57:35;;;;;;;;;;;;;;;10.92;91.18848;100551.1;;;;-75
2023/10/14 03:00:39;;;;;;;9.5;1.6;;;;;;;;;;;;;-75
2023/10/14 03:02:48;;;;;;;;;;;;;;;10.97;89.53027;100565;;;;-74
2023/10/14 03:23:10;;;;;;;;;;;;;;;10.69;91.11719;100593.9;;;;-75
2023/10/14 03:28:08;;;;;;;;;;;;;;;10.61;92.97461;100598.2;;;;-74
2023/10/14 03:30:37;;;;;;;13.2;1.5;;;;;;;;;;;;;-74
2023/10/14 03:33:08;;;;;;;;;;;;;;;10.61;92.98535;100614.1;;;;-75
2023/10/14 03:38:24;;;;;;;;;;;;;;;10.7;91.39453;100631.1;;;;-75
2023/10/14 03:43:08;;;;;;;;;;;;;;;10.68;92.17383;100638.9;;;;-74
2023/10/14 03:48:08;;;;;;;;;;;;;;;10.69;92.14258;100643.4;;;;-75
2023/10/14 04:31:16;;;;;;;10.3;1.5;;;;;;;;;;;;;-78
2023/10/14 05:23:30;;;;;;;;;;;;;;;10.79;87.5498;100807.9;;;;-88
2023/10/14 06:05:37;;;;;;;;;;;;;;;;;;;;;
2023/10/14 07:53:47;;;;;;;;;;;;;;;12.29;72.6084;101073.4;;;;-88
2023/10/14 07:58:47;;;;;;;;;;;;;;;12.47;72.28223;101084.4;;;;-90
2023/10/14 08:08:29;;;;;;;;;;;;;;;;;;;;;
2023/10/14 08:16:51;;;;;;;;;;;;;;;12.99;70.14746;101101.8;;;;-77
2023/10/14 08:25:59;;;;;;;;;;;;;;;13.02;69.14648;101111;;;;-77
2023/10/14 08:42:17;;;;;;;;;;;;;;;13.51;66.16016;101129.7;;;;-82
2023/10/14 08:52:14;;;;;;;;;;;;;;;13.67;67.34863;101145.8;;;;-85
2023/10/14 08:57:11;;;;;;;;;;;;;;;13.64;65.33008;101163;;;;-84
2023/10/14 09:38:43;;;;;;;;;;;;;;;14.29;58.18848;101223.6;;;;-82
2023/10/14 09:43:43;;;;;;;;;;;;;;;14.37;59.28809;101221;;;;-82
2023/10/14 09:48:37;;;;;;;;;;;;;;;14.26;61.37207;101236.6;;;;-84
2023/10/14 09:53:38;;;;;;;;;;;;;;;14.52;59.46582;101241.7;;;;-81
2023/10/14 09:58:46;;;;;;;;;;;;;;;14.83;59.95703;101252.3;;;;-80
2023/10/14 10:01:00;;;;;;;10.9;1.7;;;;;;;;;;;;;-81
2023/10/14 10:03:44;;;;;;;;;;;;;;;14.89;58.4707;101260.5;;;;-82
2023/10/14 10:08:55;;;;;;;;;;;;;;;14.9;55.81445;101265.9;;;;-81
2023/10/14 10:13:46;;;;;;;;;;;;;;;14.87;54.45996;101276.2;;;;-81
2023/10/14 10:18:45;;;;;;;;;;;;;;;14.72;56.7041;101282.8;;;;-81
2023/10/14 10:23:37;;;;;;;;;;;;;;;14.82;56.85059;101291.5;;;;-81
2023/10/14 10:28:59;;;;;;;;;;;;;;;15.09;57.86621;101283;;;;-82
2023/10/14 10:31:11;;;;;;;8.7;1.6;;;;;;;;;;;;;-82
2023/10/14 10:33:53;;;;;;;;;;;;;;;15.38;55.43652;101286.5;;;;-81
2023/10/14 10:38:53;;;;;;;;;;;;;;;15.44;55.24121;101293.7;;;;-82
2023/10/14 10:43:40;;;;;;;;;;;;;;;15.23;54.89941;101304;;;;-81
2023/10/14 10:48:46;;;;;;;;;;;;;;;15.1;56.56152;101311.9;;;;-81
2023/10/14 10:53:41;;;;;;;;;;;;;;;14.77;58.2627;101306.4;;;;-81
2023/10/14 10:58:45;;;;;;;;;;;;;;;14.59;58.41895;101313.3;;;;-83
2023/10/14 11:01:28;;;;;;;;;;;;;;;;;;;;;
2023/10/14 11:03:57;;;;;;;;;;;;;;;14.61;59.52344;101313.9;;;;-82
2023/10/14 11:08:37;;;;;;;;;;;;;;;14.97;58.71777;101304.3;;;;-81
2023/10/14 11:13:39;;;;;;;;;;;;;;;14.99;56.80664;101304.3;;;;-84
2023/10/14 11:18:35;;;;;;;;;;;;;;;14.4;54.4248;101312;;;;-81
2023/10/14 11:23:44;;;;;;;;;;;;;;;14;57.67676;101322.3;;;;-83
2023/10/14 11:28:44;;;;;;;;;;;;;;;13.77;58.04102;101325.9;;;;-82
2023/10/14 11:31:07;;;;;;;8.1;1.3;;;;;;;;;;;;;-83
2023/10/14 11:33:44;;;;;;;;;;;;;;;13.89;60.62598;101328.8;;;;-82
2023/10/14 11:38:58;;;;;;;;;;;;;;;14.03;60.17383;101331.3;;;;-81
2023/10/14 11:43:44;;;;;;;;;;;;;;;14.6;60.20703;101333.2;;;;-82
2023/10/14 11:48:43;;;;;;;;;;;;;;;15.13;58.31055;101339.9;;;;-81
2023/10/14 11:58:37;;;;;;;;;;;;;;;13.94;60.93555;101363.9;;;;-82
2023/10/14 12:05:57;;;;;;;;;;;;;;;13.56;63.92969;101369.1;;;;-80
2023/10/14 12:10:56;;;;;;;;;;;;;;;14.1;63.05566;101363.2;;;;-80
2023/10/14 12:16:05;;;;;;;;;;;;;;;14.5;60.05859;101361.6;;;;-80
2023/10/14 12:21:04;;;;;;;;;;;;;;;14.8;55.83691;101363.2;;;;-81
2023/10/14 12:31:07;;;;;;;;;;;;;;;14.04;55.88574;101376.8;;;;-79
2023/10/14 12:31:27;;;;;;;9.7;1.9;;;;;;;;;;;;;-79
2023/10/14 12:35:57;;;;;;;;;;;;;;;13.88;57.69531;101379.6;;;;-84
2023/10/14 12:40:53;;;;;;;;;;;;;;;13.65;55.02832;101399.5;;;;-79
2023/10/14 12:46:09;;;;;;;;;;;;;;;13.85;56.64746;101394.8;;;;-78
2023/10/14 12:50:53;;;;;;;;;;;;;;;14.03;54.7832;101395.4;;;;-81
2023/10/14 12:55:59;;;;;;;;;;;;;;;14.12;56.46973;101399.5;;;;-80
2023/10/14 13:00:53;;;;;;;;;;;;;;;14.46;57.63672;101404.6;;;;-80
2023/10/14 13:01:16;;;;;;;11.2;1.8;;;;;;;;;;;;;-79
2023/10/14 13:05:55;;;;;;;;;;;;;;;14.3;54.08594;101420.3;;;;-80
2023/10/14 13:10:56;;;;;;;;;;;;;;;14.16;53.74414;101428.7;;;;-80
2023/10/14 13:15:55;;;;;;;;;;;;;;;14.25;50.8623;101433.3;;;;-82
2023/10/14 13:20:58;;;;;;;;;;;;;;;14;50.5293;101453.8;;;;-81
2023/10/14 13:26:06;;;;;;;;;;;;;;;14.18;51.48438;101439.5;;;;-82
2023/10/14 13:31:12;;;;;;;;;;;;;;;14.27;53.31738;101454.9;;;;-80
2023/10/14 13:31:39;;;;;;;8.7;1.3;;;;;;;;;;;;;-80
2023/10/14 13:36:09;;;;;;;;;;;;;;;13.79;54.28223;101457.6;;;;-80
2023/10/14 13:40:59;;;;;;;;;;;;;;;14.06;55.0127;101476.5;;;;-80
2023/10/14 13:46:00;;;;;;;;;;;;;;;13.53;51.22754;101476.1;;;;-81
2023/10/14 13:50:55;;;;;;;;;;;;;;;13.64;49.54395;101468.4;;;;-81
2023/10/14 13:55:58;;;;;;;;;;;;;;;13.98;52.49609;101475;;;;-82
2023/10/14 14:01:06;;;;;;;;;;;;;;;13.83;55.34375;101478.7;;;;-81
2023/10/14 14:01:32;;;;;;;10.1;1.5;;;;;;;;;;;;;-81
2023/10/14 14:06:13;;;;;;;;;;;;;;;13.48;50.14453;101487.5;;;;-81
2023/10/14 14:11:00;;;;;;;;;;;;;;;13.18;48.73828;101502.6;;;;-82
2023/10/14 14:15:55;;;;;;;;;;;;;;;13;51.02051;101507.6;;;;-81
2023/10/14 14:21:00;;;;;;;;;;;;;;;13.24;51.85742;101509;;;;-82
2023/10/14 14:26:02;;;;;;;;;;;;;;;13.41;50.42773;101508.5;;;;-81
2023/10/14 14:30:59;;;;;;;;;;;;;;;13.4;48.04297;101525.2;;;;-81
2023/10/14 14:31:18;;;;;;;6.7;1.1;;;;;;;;;;;;;-80
2023/10/14 14:35:53;;;;;;;;;;;;;;;13.44;50.75781;101529.6;;;;-80
2023/10/14 14:40:53;;;;;;;;;;;;;;;13.45;52.60059;101527.2;;;;-80
2023/10/14 14:46:05;;;;;;;;;;;;;;;13.25;50.8584;101540.2;;;;-81
2023/10/14 14:50:59;;;;;;;;;;;;;;;12.73;49.92383;101546.3;;;;-82
2023/10/14 14:55:55;;;;;;;;;;;;;;;12.54;52.01074;101543.8;;;;-81
2023/10/14 15:00:56;;;;;;;;;;;;;;;12.38;53.07617;101542.1;;;;-80
2023/10/14 15:01:29;;;;;;;6.7;1;;;;;;;;;;;;;-82
2023/10/14 15:05:54;;;;;;;;;;;;;;;12.47;52.90918;101548.6;;;;-82
2023/10/14 15:11:11;;;;;;;;;;;;;;;12.59;55.33203;101548;;;;-81
2023/10/14 15:16:21;;;;;;;;;;;;;;;12.62;55.26953;101550.1;;;;-81
2023/10/14 15:20:59;;;;;;;;;;;;;;;12.73;54.76855;101562;;;;-80
2023/10/14 15:25:55;;;;;;;;;;;;;;;12.71;53.11719;101555.8;;;;-81
2023/10/14 15:31:00;;;;;;;;;;;;;;;12.69;54.8418;101564.5;;;;-82
2023/10/14 15:31:32;;;;;;;8.8;1.3;;;;;;;;;;;;;-82
2023/10/14 15:36:11;;;;;;;;;;;;;;;12.44;56.0293;101566.3;;;;-80
2023/10/14 15:41:06;;;;;;;;;;;;;;;12.46;53.7041;101578.6;;;;-81
2023/10/14 15:46:02;;;;;;;;;;;;;;;12.05;55.4873;101577.9;;;;-81
2023/10/14 15:50:58;;;;;;;;;;;;;;;11.71;55.26563;101591;;;;-80
2023/10/14 15:55:57;;;;;;;;;;;;;;;11.65;56.81152;101583.7;;;;-80
2023/10/14 16:00:53;;;;;;;;;;;;;;;11.48;58.01758;101581;;;;-81
2023/10/14 16:01:28;;;;;;;10.8;1.4;;;;;;;;;;;;;-82
2023/10/14 16:05:59;;;;;;;;;;;;;;;11.32;60.11426;101583.3;;;;-81
2023/10/14 16:11:00;;;;;;;;;;;;;;;11.2;60.58887;101585.2;;;;-82
2023/10/14 16:16:08;;;;;;;;;;;;;;;11.19;59.14941;101596.3;;;;-82
2023/10/14 16:21:05;;;;;;;;;;;;;;;11.15;60.70508;101607.8;;;;-81
2023/10/14 16:25:56;;;;;;;;;;;;;;;11.06;61.11621;101611.8;;;;-81
2023/10/14 16:31:04;;;;;;;;;;;;;;;10.99;60.69336;101614.8;;;;-80
2023/10/14 16:31:25;;;;;;;10.4;1.7;;;;;;;;;;;;;-83
2023/10/14 16:35:55;;;;;;;;;;;;;;;10.94;61.71191;101618.6;;;;-80
2023/10/14 16:41:04;;;;;;;;;;;;;;;10.84;62.9668;101628.1;;;;-81
2023/10/14 16:46:01;;;;;;;;;;;;;;;10.77;63.83496;101633.9;;;;-80
2023/10/14 16:50:59;;;;;;;;;;;;;;;10.71;63.60352;101641.5;;;;-80
2023/10/14 17:02:07;;;;;;;;;;;;;;;;;;;;;
2023/10/14 17:21:18;;;;;;;;;;;;;;;10.29;63.37402;101675.6;;;;-82
2023/10/14 17:26:15;;;;;;;;;;;;;;;10.28;63.99707;101681.3;;;;-81
2023/10/14 17:51:03;;;;;;;;;;;;;;;;;;;;;
2023/10/14 18:14:38;;;;;;;;;;;;;;;9.72;67.77344;101703;;;;-78
2023/10/14 18:31:53;;;;;;;9.6;1.5;;;;;;;;;;;;;-81
2023/10/14 18:34:50;;;;;;;;;;;;;;;9.58;68.92676;101719.6;;;;-82
2023/10/14 18:49:50;;;;;;;;;;;;;;;9.55;69.92969;101724.3;;;;-82
2023/10/14 19:09:14;;;;;;;;;;;;;;;9.07;71.63281;101725.5;;;;-78
2023/10/14 19:26:35;;;;;;;;;;;;;;;8.92;73.12109;101723.7;;;;-77
2023/10/14 19:35:56;;;;;;;;;;;;;;;8.84;74.7207;101720.6;;;;-82
2023/10/14 19:40:54;;;;;;;;;;;;;;;8.82;75.08203;101725.3;;;;-82
2023/10/14 19:46:00;;;;;;;;;;;;;;;8.79;74.49121;101727.2;;;;-83
2023/10/14 20:00:54;;;;;;;;;;;;;;;8.9;71.57129;101724.5;;;;-83
2023/10/14 20:02:13;;;;;;;;;;;;;;;;;;;;;
2023/10/14 20:05:55;;;;;;;;;;;;;;;8.83;71.88086;101725.7;;;;-82
2023/10/14 20:10:55;;;;;;;;;;;;;;;8.75;71.97852;101728.6;;;;-81
2023/10/14 20:16:02;;;;;;;;;;;;;;;;;;;;;
2023/10/14 20:21:02;;;;;;;;;;;;;;;8.73;72.14258;101735.7;;;;-84
2023/10/14 20:25:53;;;;;;;;;;;;;;;8.72;71.85254;101719.3;;;;-83
2023/10/14 20:31:10;;;;;;;;;;;;;;;8.77;72.1582;101724.1;;;;-82
2023/10/14 20:31:43;;;;;;;7.4;1.3;;;;;;;;;;;;;-84
2023/10/14 20:35:54;;;;;;;;;;;;;;;8.9;72.05762;101719.8;;;;-82
2023/10/14 20:40:50;;;;;;;;;;;;;;;9.01;73.11621;101718;;;;-82
2023/10/14 20:45:52;;;;;;;;;;;;;;;9.09;73.4834;101733.3;;;;-82
2023/10/14 20:50:53;;;;;;;;;;;;;;;9.08;89.01172;101817.8;;;;-83
2023/10/14 20:55:43;;;;;;;;;;;;;;;8.25;100;101817.2;;;;-82
2023/10/14 21:01:45;;;;;;;7.2;1;;;;;;;;;;;;;-81
2023/10/14 21:06:14;;;;;;;;;;;;;;;7.86;100;101794;;;;-83
2023/10/14 21:10:55;;;;;;;;;;;;;;;7.75;100;101800.3;;;;-81
2023/10/14 22:14:31;;;;;;;;;;;;;;;;;;;;;
